Time;durP1;ratioP1;P1;durP2;ratioP2;P2;SDS_P1;SDS_P2;PMS_P1;PMS_P2;Temp;Humidity;BMP_temperature;BMP_pressure;BME280_temperature;BME280_humidity;BME280_pressure;Samples;Min_cycle;Max_cycle;Signal;HPM_P1;HPM_P2
2022/10/13 00:01:21;;;;;;;;;9.00;7.25;;;;;20.69;43.88;101552.13;5037877;28;45508;-63
2022/10/13 00:03:47;;;;;;;;;10.25;8.25;;;;;20.69;43.56;101554.75;5036810;28;45347;-64
2022/10/13 00:06:15;;;;;;;;;8.75;8.00;;;;;20.69;43.89;101557.41;5037133;28;45872;-66
2022/10/13 00:08:41;;;;;;;;;8.00;8.00;;;;;20.68;43.90;101559.16;5037272;28;45220;-64
2022/10/13 00:11:11;;;;;;;;;9.75;8.00;;;;;20.69;43.70;101555.59;5036991;28;45529;-66
2022/10/13 00:13:36;;;;;;;;;10.00;10.00;;;;;20.66;43.98;101547.84;5036640;28;46100;-65
2022/10/13 00:16:02;;;;;;;;;9.25;8.00;;;;;20.68;43.89;101556.53;5036699;28;45403;-66
2022/10/13 00:18:28;;;;;;;;;12.00;7.25;;;;;20.67;43.79;101552.19;5037155;28;45382;-66
2022/10/13 00:20:53;;;;;;;;;7.25;7.25;;;;;20.68;43.72;101556.53;5037160;28;45560;-65
2022/10/13 00:23:18;;;;;;;;;9.00;9.00;;;;;20.68;44.17;101560.94;5036956;28;46272;-66
2022/10/13 00:25:46;;;;;;;;;10.00;7.75;;;;;20.68;43.89;101560.94;5036792;28;46938;-66
2022/10/13 00:28:14;;;;;;;;;10.00;10.00;;;;;20.68;43.61;101558.31;5036712;28;45235;-66
2022/10/13 00:30:39;;;;;;;;;8.00;8.00;;;;;20.68;43.92;101545.16;5037024;28;45555;-65
2022/10/13 00:33:06;;;;;;;;;8.50;7.25;;;;;20.68;43.76;101550.41;5036474;28;46279;-60
2022/10/13 00:35:31;;;;;;;;;9.00;9.00;;;;;20.66;43.78;101542.59;5036726;28;45452;-65
2022/10/13 00:37:56;;;;;;;;;10.25;9.00;;;;;20.68;43.84;101539.88;5036605;28;45317;-60
2022/10/13 00:40:22;;;;;;;;;8.00;8.00;;;;;20.67;43.66;101530.25;5037133;28;45300;-63
2022/10/13 00:42:47;;;;;;;;;10.00;8.25;;;;;20.68;43.68;101521.44;5036847;28;46202;-62
2022/10/13 00:45:20;;;;;;;;;9.00;8.00;;;;;20.67;43.84;101517.94;5036271;28;45399;-61
2022/10/13 00:47:49;;;;;;;;;10.75;8.75;;;;;20.64;44.14;101511.97;5036710;28;45361;-60
2022/10/13 00:50:19;;;;;;;;;8.25;8.25;;;;;20.67;43.96;101517.94;5036478;28;45570;-59
2022/10/13 00:52:46;;;;;;;;;8.50;8.50;;;;;20.67;44.30;101520.56;5036469;28;46175;-59
2022/10/13 00:55:18;;;;;;;;;9.50;8.50;;;;;20.67;43.79;101522.34;5036248;28;45342;-65
2022/10/13 00:57:45;;;;;;;;;11.50;10.00;;;;;20.66;43.85;101526.78;5036683;28;45583;-62
2022/10/13 01:00:12;;;;;;;;;8.75;7.50;;;;;20.66;44.24;101521.53;5036453;28;45622;-62
2022/10/13 01:02:37;;;;;;;;;9.50;8.25;;;;;20.66;43.84;101515.38;5036144;28;45455;-60
2022/10/13 01:05:05;;;;;;;;;8.25;7.50;;;;;20.66;43.92;101515.38;5035960;28;45357;-64
2022/10/13 01:07:32;;;;;;;;;8.00;8.00;;;;;20.65;44.04;101518.94;5036435;28;45275;-63
2022/10/13 01:10:00;;;;;;;;;7.50;7.25;;;;;20.65;43.90;101526.84;5036224;28;45263;-63
2022/10/13 01:12:49;;;;;;;;;9.25;8.75;;;;;20.65;44.25;101532.97;5036008;28;46256;-65
2022/10/13 01:15:41;;;;;;;;;8.50;8.50;;;;;20.65;43.89;101530.34;5035937;28;45733;-65
2022/10/13 01:18:41;;;;;;;;;11.50;7.50;;;;;20.66;44.20;101518.00;5034789;28;45468;-65
2022/10/13 01:21:10;;;;;;;;;9.25;8.00;;;;;20.63;44.35;101508.47;5034791;28;45468;-60
2022/10/13 01:23:54;;;;;;;;;10.50;8.75;;;;;20.63;44.06;101505.84;5034791;28;46146;-64
2022/10/13 01:26:50;;;;;;;;;9.75;8.00;;;;;20.65;44.04;101518.94;5036070;28;45825;-65
2022/10/13 01:29:31;;;;;;;;;7.00;7.00;;;;;20.65;44.27;101524.19;5035829;28;45350;-66
2022/10/13 01:32:17;;;;;;;;;10.00;10.00;;;;;20.65;43.91;101514.53;5036097;28;45354;-66
2022/10/13 01:34:59;;;;;;;;;11.25;9.50;;;;;20.62;44.15;101490.97;5035750;28;45370;-65
2022/10/13 01:37:39;;;;;;;;;8.00;8.00;;;;;20.65;44.10;101509.28;5034891;28;45354;-63
2022/10/13 01:40:17;;;;;;;;;7.50;7.50;;;;;20.65;44.33;101509.28;5035886;28;45377;-59
2022/10/13 01:43:00;;;;;;;;;9.25;7.75;;;;;20.66;44.24;101499.56;5036199;28;45971;-62
2022/10/13 01:45:33;;;;;;;;;10.50;10.00;;;;;20.64;43.99;101499.66;5035796;28;45338;-59
2022/10/13 01:48:02;;;;;;;;;8.50;7.00;;;;;20.65;44.16;101509.28;5035460;28;45342;-61
2022/10/13 01:50:28;;;;;;;;;8.00;8.00;;;;;20.62;43.99;101504.13;5035886;28;45380;-59
2022/10/13 01:52:57;;;;;;;;;6.00;4.00;;;;;20.64;44.39;101514.59;5035569;28;45241;-61
2022/10/13 01:55:22;;;;;;;;;9.75;8.00;;;;;20.63;44.53;101516.38;5034594;28;48282;-63
2022/10/13 01:57:48;;;;;;;;;10.50;8.25;;;;;20.63;44.19;101499.72;5035880;28;45283;-63
2022/10/13 02:00:18;;;;;;;;;8.67;8.33;;;;;20.63;44.08;101489.16;5035043;28;53265;-63
2022/10/13 02:03:05;;;;;;;;;9.00;9.00;;;;;20.63;44.64;101492.69;5035499;28;45507;-64
2022/10/13 02:06:03;;;;;;;;;9.50;9.50;;;;;20.62;44.18;101496.22;5035361;28;45584;-61
2022/10/13 02:08:54;;;;;;;;;10.50;8.25;;;;;20.63;43.94;101499.72;5035470;28;45329;-62
2022/10/13 02:11:21;;;;;;;;;9.00;8.50;;;;;20.61;44.53;101489.25;5036024;28;45394;-65
2022/10/13 02:14:10;;;;;;;;;8.50;7.50;;;;;20.62;44.48;101490.97;5035721;28;45192;-61
2022/10/13 02:16:40;;;;;;;;;9.00;8.00;;;;;20.63;44.55;101495.31;5035363;28;45333;-59
2022/10/13 02:19:08;;;;;;;;;9.00;8.00;;;;;20.61;44.64;101485.78;5033687;28;45970;-59
2022/10/13 02:21:34;;;;;;;;;9.50;7.75;;;;;20.62;44.49;101476.91;5035607;28;45557;-59
2022/10/13 02:24:01;;;;;;;;;9.50;9.50;;;;;20.62;44.24;101477.78;5034046;28;45436;-58
2022/10/13 02:26:29;;;;;;;;;11.00;8.50;;;;;20.62;44.55;101479.56;5035069;28;45373;-60
2022/10/13 02:28:55;;;;;;;;;7.25;7.25;;;;;20.63;44.33;101462.84;5034966;28;45263;-59
2022/10/13 02:31:20;;;;;;;;;11.00;9.75;;;;;20.62;44.63;101466.38;5035521;28;45252;-60
2022/10/13 02:33:45;;;;;;;;;9.50;9.50;;;;;20.62;44.58;101469.91;5035298;28;45211;-59
2022/10/13 02:36:11;;;;;;;;;10.00;8.25;;;;;20.63;44.62;101466.34;5037245;28;49556;-59
2022/10/13 02:38:36;;;;;;;;;9.00;9.00;;;;;20.64;44.21;101460.16;5038419;28;45250;-59
2022/10/13 02:41:02;;;;;;;;;9.50;8.75;;;;;20.62;44.63;101456.72;5038111;28;45659;-61
2022/10/13 02:43:27;;;;;;;;;11.50;9.00;;;;;20.63;44.71;101445.28;5038710;28;45291;-61
2022/10/13 02:45:53;;;;;;;;;10.25;10.25;;;;;20.64;44.65;101441.72;5038126;28;45328;-59
2022/10/13 02:48:18;;;;;;;;;9.75;8.00;;;;;20.62;44.35;101418.97;5037330;28;45272;-59
2022/10/13 02:50:45;;;;;;;;;9.50;8.75;;;;;20.64;44.51;101420.63;5038518;28;45370;-62
2022/10/13 02:53:10;;;;;;;;;11.25;9.00;;;;;20.64;44.61;101414.50;5038263;28;45522;-59
2022/10/13 02:55:35;;;;;;;;;11.75;9.00;;;;;20.65;44.26;101429.38;5038104;28;45364;-59
2022/10/13 02:58:01;;;;;;;;;6.75;6.75;;;;;20.65;44.36;101429.38;5037538;28;58136;-58
2022/10/13 03:00:26;;;;;;;;;9.25;7.50;;;;;20.64;44.40;101439.06;5037916;28;50824;-59
2022/10/13 03:02:51;;;;;;;;;13.50;10.25;;;;;20.63;44.31;101449.66;5038553;28;45551;-59
2022/10/13 03:05:17;;;;;;;;;9.75;8.25;;;;;20.65;44.51;101446.06;5037730;28;45978;-59
2022/10/13 03:07:42;;;;;;;;;9.00;9.00;;;;;20.65;44.85;101451.31;5038164;28;45771;-58
2022/10/13 03:10:08;;;;;;;;;9.50;8.00;;;;;20.63;44.46;101429.47;5037928;28;45383;-59
2022/10/13 03:12:33;;;;;;;;;12.50;8.25;;;;;20.64;44.51;101433.81;5038186;28;45395;-59
2022/10/13 03:14:58;;;;;;;;;12.25;8.50;;;;;20.63;44.42;101428.59;5037526;28;45417;-59
2022/10/13 03:17:24;;;;;;;;;9.75;7.75;;;;;20.63;44.48;101437.38;5037822;28;45181;-61
2022/10/13 03:19:50;;;;;;;;;8.50;8.50;;;;;20.64;44.64;101430.31;5038298;28;45354;-59
2022/10/13 03:22:15;;;;;;;;;11.75;8.25;;;;;20.64;44.70;101420.63;5037979;28;45315;-59
2022/10/13 03:24:41;;;;;;;;;11.25;9.00;;;;;20.64;44.40;101423.28;5037594;28;45352;-59
2022/10/13 03:27:06;;;;;;;;;11.25;10.00;;;;;20.65;44.46;101413.56;5036219;28;45870;-58
2022/10/13 03:29:32;;;;;;;;;10.75;9.75;;;;;20.65;44.47;101403.91;5037840;28;45345;-59
2022/10/13 03:31:58;;;;;;;;;9.50;7.25;;;;;20.64;44.94;101407.47;5037884;28;45394;-60
2022/10/13 03:34:23;;;;;;;;;8.75;8.75;;;;;20.63;44.68;101402.25;5037488;28;45693;-59
2022/10/13 03:36:48;;;;;;;;;9.50;8.50;;;;;20.65;44.56;101419.72;5037990;28;45414;-59
2022/10/13 03:39:14;;;;;;;;;10.00;8.50;;;;;20.65;44.71;101413.56;5036132;28;45625;-59
2022/10/13 03:41:39;;;;;;;;;8.50;8.25;;;;;20.64;44.81;101410.09;5036539;28;45504;-59
2022/10/13 03:44:06;;;;;;;;;9.50;8.00;;;;;20.64;44.73;101407.47;5037090;28;46134;-65
2022/10/13 03:46:32;;;;;;;;;10.50;8.50;;;;;20.66;44.92;101404.75;5036535;28;45849;-65
2022/10/13 03:48:57;;;;;;;;;9.25;7.25;;;;;20.65;44.90;101393.38;5037383;28;45459;-65
2022/10/13 03:51:23;;;;;;;;;6.25;6.25;;;;;20.66;44.70;101395.09;5036847;28;45510;-63
2022/10/13 03:53:50;;;;;;;;;6.75;6.75;;;;;20.66;44.58;101391.59;5036242;28;46131;-66
2022/10/13 03:56:22;;;;;;;;;7.25;7.25;;;;;20.64;44.67;101370.59;5037061;28;45804;-64
2022/10/13 03:58:52;;;;;;;;;7.75;6.75;;;;;20.65;44.31;101367.03;5037689;28;45355;-64
2022/10/13 04:01:18;;;;;;;;;10.50;7.50;;;;;20.66;44.86;101381.06;5037715;28;45342;-60
2022/10/13 04:03:44;;;;;;;;;6.25;6.25;;;;;20.66;44.54;101389.81;5037276;28;45622;-62
2022/10/13 04:06:09;;;;;;;;;9.00;9.00;;;;;20.67;44.91;101393.28;5037019;28;45302;-60
2022/10/13 04:08:35;;;;;;;;;10.00;8.75;;;;;20.68;44.55;101392.38;5037349;28;45348;-64
2022/10/13 04:11:07;;;;;;;;;9.25;9.25;;;;;20.68;44.62;101389.75;5036346;28;45290;-65
2022/10/13 04:13:33;;;;;;;;;6.25;6.00;;;;;20.66;44.51;101389.81;5036946;28;46087;-63
2022/10/13 04:16:03;;;;;;;;;9.25;8.00;;;;;20.66;44.60;101374.03;5036798;28;45528;-62
2022/10/13 04:18:29;;;;;;;;;8.00;7.50;;;;;20.65;44.54;101372.31;5037097;28;45425;-60
2022/10/13 04:20:54;;;;;;;;;9.00;7.50;;;;;20.65;44.75;101381.97;5037004;28;45481;-60
2022/10/13 04:23:19;;;;;;;;;8.25;7.25;;;;;20.64;44.76;101390.81;5037169;28;46107;-60
2022/10/13 04:25:45;;;;;;;;;8.50;7.25;;;;;20.64;44.53;101391.66;5036800;28;45340;-64
2022/10/13 04:28:11;;;;;;;;;10.75;8.00;;;;;20.65;44.97;101382.84;5036729;28;45291;-62
2022/10/13 04:30:37;;;;;;;;;9.75;9.25;;;;;20.68;44.91;101385.31;5037089;28;45309;-59
2022/10/13 04:33:02;;;;;;;;;9.00;8.50;;;;;20.69;44.51;101386.19;5036457;28;45420;-60
2022/10/13 04:35:28;;;;;;;;;7.00;7.00;;;;;20.72;44.56;101390.44;5036741;28;45547;-64
2022/10/13 04:37:56;;;;;;;;;8.25;6.25;;;;;20.73;44.56;101395.63;5036714;28;45397;-62
2022/10/13 04:40:21;;;;;;;;;11.00;8.50;;;;;20.76;45.03;101395.53;5037283;28;45354;-60
2022/10/13 04:42:46;;;;;;;;;10.25;9.00;;;;;20.75;44.41;101392.97;5036501;28;45384;-60
2022/10/13 04:45:12;;;;;;;;;7.75;7.25;;;;;20.79;44.55;101402.41;5036246;28;46299;-67
2022/10/13 04:47:38;;;;;;;;;7.50;7.50;;;;;20.79;44.77;101394.50;5036815;28;45378;-66
2022/10/13 04:50:04;;;;;;;;;9.75;9.75;;;;;20.83;44.62;101396.09;5036459;28;45587;-61
2022/10/13 04:52:29;;;;;;;;;7.25;7.25;;;;;20.83;44.71;101390.81;5036413;28;46247;-63
2022/10/13 04:54:54;;;;;;;;;6.25;6.25;;;;;20.85;44.36;101391.59;5035934;28;47232;-60
2022/10/13 04:57:20;;;;;;;;;9.33;8.33;;;;;20.86;44.78;101380.13;5036449;28;53023;-60
2022/10/13 04:59:45;;;;;;;;;9.00;8.00;;;;;20.87;44.34;101391.53;5036179;28;48475;-60
2022/10/13 05:02:10;;;;;;;;;8.50;7.25;;;;;20.88;44.71;101388.84;5035762;28;46160;-62
2022/10/13 05:04:36;;;;;;;;;9.75;7.50;;;;;20.89;44.84;101377.34;5036190;28;45414;-59
2022/10/13 05:07:01;;;;;;;;;8.50;8.50;;;;;20.88;44.77;101373.03;5036111;28;45295;-58
2022/10/13 05:09:26;;;;;;;;;8.75;8.50;;;;;20.90;44.67;101371.16;5035234;28;45414;-59
2022/10/13 05:11:54;;;;;;;;;11.00;9.25;;;;;20.92;44.65;101369.28;5036324;28;46347;-64
2022/10/13 05:14:20;;;;;;;;;9.50;8.00;;;;;20.93;44.61;101373.63;5034920;28;45759;-65
2022/10/13 05:16:45;;;;;;;;;10.50;8.00;;;;;20.93;44.65;101370.16;5036246;28;45413;-59
2022/10/13 05:19:11;;;;;;;;;8.50;8.50;;;;;20.95;44.70;101371.78;5035810;28;45473;-60
2022/10/13 05:21:37;;;;;;;;;9.25;8.00;;;;;20.97;44.82;101369.06;5035879;28;46410;-60
2022/10/13 05:24:04;;;;;;;;;8.00;7.00;;;;;20.99;44.94;101375.13;5035847;28;45741;-61
2022/10/13 05:26:32;;;;;;;;;8.25;8.00;;;;;20.99;44.95;101369.84;5034823;28;45378;-61
2022/10/13 05:28:59;;;;;;;;;8.00;8.00;;;;;21.00;44.97;101374.19;5036152;28;45480;-62
2022/10/13 05:31:26;;;;;;;;;10.00;7.25;;;;;21.00;44.94;101367.13;5034562;28;46366;-60
2022/10/13 05:33:52;;;;;;;;;9.25;6.00;;;;;21.00;44.91;101361.03;5035931;28;45444;-60
2022/10/13 05:36:20;;;;;;;;;9.00;8.00;;;;;20.99;44.70;101354.91;5035896;28;45450;-60
2022/10/13 05:38:53;;;;;;;;;9.75;7.25;;;;;21.00;44.99;101350.47;5035511;28;45235;-60
2022/10/13 05:41:19;;;;;;;;;7.25;7.25;;;;;20.98;45.04;101358.47;5033054;28;48525;-60
2022/10/13 05:43:44;;;;;;;;;10.00;6.00;;;;;20.98;45.04;101342.66;5033333;28;45420;-61
2022/10/13 05:46:10;;;;;;;;;9.00;8.00;;;;;20.98;44.81;101342.66;5033267;28;45765;-60
2022/10/13 05:48:36;;;;;;;;;8.25;7.00;;;;;20.97;44.85;101340.09;5034215;28;45500;-59
2022/10/13 05:51:10;;;;;;;;;11.75;7.00;;;;;20.97;44.96;101337.44;5035231;28;46173;-60
2022/10/13 05:53:41;;;;;;;;;6.25;6.25;;;;;20.95;45.31;101332.25;5035575;28;45331;-59
2022/10/13 05:56:16;;;;;;;;;6.50;6.50;;;;;20.95;45.03;101327.00;5034179;28;45599;-59
2022/10/13 05:58:47;;;;;;;;;9.50;8.00;;;;;20.96;44.96;101327.84;5035847;28;45378;-59
2022/10/13 06:01:16;;;;;;;;;9.25;8.75;;;;;20.95;44.88;101326.13;5035397;28;45281;-59
2022/10/13 06:03:43;;;;;;;;;7.25;7.25;;;;;20.95;45.20;101336.66;5035224;28;45311;-60
2022/10/13 06:06:09;;;;;;;;;9.50;7.00;;;;;20.95;44.96;101348.06;5035350;28;45334;-60
2022/10/13 06:08:35;;;;;;;;;7.00;6.50;;;;;20.92;44.72;101350.84;5035634;28;45304;-60
2022/10/13 06:11:02;;;;;;;;;8.00;6.00;;;;;20.93;45.21;101352.56;5037508;28;45435;-60
2022/10/13 06:13:27;;;;;;;;;7.75;6.25;;;;;20.91;44.82;101357.03;5038807;28;45839;-61
2022/10/13 06:15:52;;;;;;;;;8.75;7.75;;;;;20.92;44.83;101353.47;5039112;28;45239;-60
2022/10/13 06:18:17;;;;;;;;;7.00;6.75;;;;;20.90;44.80;101344.78;5039341;28;45243;-63
2022/10/13 06:20:43;;;;;;;;;9.00;7.00;;;;;20.92;44.83;101352.66;5037425;28;47490;-63
2022/10/13 06:23:08;;;;;;;;;7.00;7.00;;;;;20.90;45.19;101344.78;5038420;28;45248;-63
2022/10/13 06:25:34;;;;;;;;;6.25;6.25;;;;;20.91;44.82;101348.31;5038303;28;54550;-64
2022/10/13 06:28:00;;;;;;;;;6.25;5.25;;;;;20.89;45.01;101351.00;5038534;28;45692;-63
2022/10/13 06:30:26;;;;;;;;;9.00;7.75;;;;;20.89;45.17;101351.00;5038611;28;46118;-59
2022/10/13 06:32:55;;;;;;;;;7.25;6.25;;;;;20.88;45.07;101340.53;5039003;28;45405;-60
2022/10/13 06:35:22;;;;;;;;;7.00;7.00;;;;;20.90;45.04;101338.69;5039127;28;45325;-63
2022/10/13 06:37:47;;;;;;;;;8.75;7.00;;;;;20.88;44.79;101340.53;5039218;28;45497;-61
2022/10/13 06:40:14;;;;;;;;;7.00;5.75;;;;;20.86;44.87;101338.00;5038288;28;47039;-64
2022/10/13 06:42:39;;;;;;;;;8.25;7.75;;;;;20.88;45.06;101346.69;5038606;28;45800;-63
2022/10/13 06:45:05;;;;;;;;;7.50;6.25;;;;;20.87;45.06;101339.69;5038287;28;45357;-60
2022/10/13 06:47:30;;;;;;;;;4.50;3.00;;;;;20.87;45.04;101334.44;5038697;28;45507;-61
2022/10/13 06:49:55;;;;;;;;;7.50;7.50;;;;;20.87;45.00;101337.06;5037978;28;46064;-63
2022/10/13 06:52:21;;;;;;;;;5.00;5.00;;;;;20.86;44.91;101335.34;5038619;28;45286;-63
2022/10/13 06:54:46;;;;;;;;;11.50;6.75;;;;;20.87;45.09;101344.09;5038262;28;45317;-64
2022/10/13 06:57:11;;;;;;;;;7.00;5.25;;;;;20.86;44.50;101348.53;5038244;28;45330;-64
2022/10/13 06:59:37;;;;;;;;;7.00;7.00;;;;;20.86;44.49;101338.00;5038005;28;50610;-64
2022/10/13 07:02:02;;;;;;;;;5.33;5.33;;;;;20.87;44.88;101344.09;5037378;28;61653;-61
2022/10/13 07:04:28;;;;;;;;;5.25;5.25;;;;;20.85;44.82;101352.94;5038232;28;45370;-62
2022/10/13 07:06:53;;;;;;;;;8.25;6.50;;;;;20.85;44.83;101357.34;5038143;28;45633;-60
2022/10/13 07:09:19;;;;;;;;;7.00;6.00;;;;;20.82;44.65;101352.22;5038238;28;46162;-62
2022/10/13 07:11:45;;;;;;;;;6.25;5.75;;;;;20.85;44.52;101357.34;5037815;28;45319;-59
2022/10/13 07:14:11;;;;;;;;;6.50;6.00;;;;;20.86;44.78;101356.44;5037881;28;45247;-63
2022/10/13 07:16:36;;;;;;;;;7.50;7.00;;;;;20.85;44.96;101354.72;5038196;28;45509;-60
2022/10/13 07:19:02;;;;;;;;;6.00;4.33;;;;;20.83;44.64;101360.06;5036821;28;63854;-61
2022/10/13 07:21:27;;;;;;;;;5.50;5.00;;;;;20.85;44.77;101367.91;5036845;28;45314;-60
2022/10/13 07:23:52;;;;;;;;;4.75;4.75;;;;;20.85;44.54;101373.16;5037594;28;45244;-61
2022/10/13 07:26:18;;;;;;;;;7.00;5.00;;;;;20.84;44.86;101371.44;5037926;28;46729;-60
2022/10/13 07:28:44;;;;;;;;;6.25;6.00;;;;;20.84;44.77;101366.19;5037825;28;46081;-60
2022/10/13 07:31:13;;;;;;;;;6.75;5.25;;;;;20.84;44.84;101363.56;5037549;28;45520;-59
2022/10/13 07:33:40;;;;;;;;;3.00;3.00;;;;;20.83;44.63;101357.44;5037836;28;45431;-60
2022/10/13 07:36:06;;;;;;;;;8.00;7.00;;;;;20.84;44.82;101358.28;5037661;28;45410;-59
2022/10/13 07:38:32;;;;;;;;;5.50;5.50;;;;;20.84;44.73;101358.28;5037402;28;45413;-59
2022/10/13 07:41:01;;;;;;;;;5.75;5.00;;;;;20.84;44.76;101361.75;5037347;28;45366;-59
2022/10/13 07:43:27;;;;;;;;;4.75;4.75;;;;;20.83;44.53;101354.81;5037669;28;45245;-59
2022/10/13 07:45:52;;;;;;;;;5.50;5.50;;;;;20.83;44.60;101360.06;5036602;28;45901;-60
2022/10/13 07:48:17;;;;;;;;;5.50;5.00;;;;;20.84;44.97;101363.56;5037087;28;62687;-59
2022/10/13 07:50:43;;;;;;;;;6.00;6.00;;;;;20.84;44.95;101374.09;5037425;28;45430;-59
2022/10/13 07:53:08;;;;;;;;;7.75;5.75;;;;;20.81;44.81;101369.81;5036925;28;46377;-59
2022/10/13 07:55:33;;;;;;;;;8.00;6.00;;;;;20.84;45.00;101371.44;5037514;28;45583;-60
2022/10/13 07:58:02;;;;;;;;;5.25;5.00;;;;;20.83;44.86;101375.00;5035698;28;47422;-59
2022/10/13 08:00:28;;;;;;;;;5.00;5.00;;;;;20.83;44.44;101369.75;5037257;28;45301;-59
2022/10/13 08:02:53;;;;;;;;;6.75;6.75;;;;;20.84;44.92;101388.09;5036967;28;45255;-60
2022/10/13 08:05:19;;;;;;;;;5.00;5.00;;;;;20.83;44.47;101381.16;5037938;28;45604;-59
2022/10/13 08:07:44;;;;;;;;;6.00;6.00;;;;;20.83;44.60;101378.50;5036988;28;52693;-60
2022/10/13 08:10:10;;;;;;;;;5.00;5.00;;;;;20.84;44.89;101388.09;5036866;28;45324;-59
2022/10/13 08:12:35;;;;;;;;;5.00;5.00;;;;;20.84;44.43;101397.81;5037189;28;45489;-60
2022/10/13 08:15:01;;;;;;;;;3.00;3.00;;;;;20.82;44.35;101405.78;5035737;28;45516;-59
2022/10/13 08:17:26;;;;;;;;;6.25;5.75;;;;;20.83;44.66;101396.97;5036945;28;46063;-60
2022/10/13 08:19:52;;;;;;;;;6.67;6.67;;;;;20.82;44.83;101400.53;5036950;28;52515;-62
2022/10/13 08:22:17;;;;;;;;;5.50;5.00;;;;;20.83;44.61;101394.31;5037513;28;45485;-61
2022/10/13 08:24:42;;;;;;;;;4.00;4.00;;;;;20.85;45.00;101404.78;5037147;28;45519;-62
2022/10/13 08:27:18;;;;;;;;;4.50;4.25;;;;;20.83;44.44;101390.81;5036376;28;52703;-61
2022/10/13 08:29:43;;;;;;;;;4.00;4.00;;;;;20.84;44.86;101376.72;5036884;28;45966;-62
2022/10/13 08:32:08;;;;;;;;;7.25;5.25;;;;;20.84;44.60;101387.25;5036652;28;45428;-65
2022/10/13 08:34:35;;;;;;;;;6.00;6.00;;;;;20.84;44.61;101382.00;5035461;28;45471;-63
2022/10/13 08:37:01;;;;;;;;;7.50;6.75;;;;;20.83;44.80;101390.81;5036279;28;46341;-60
2022/10/13 08:39:27;;;;;;;;;4.75;4.75;;;;;20.83;44.61;101401.34;5036408;28;45515;-59
2022/10/13 08:41:54;;;;;;;;;7.75;4.50;;;;;20.85;44.73;101404.78;5036420;28;45399;-60
2022/10/13 08:44:22;;;;;;;;;6.00;5.00;;;;;20.84;44.66;101400.44;5037211;28;45524;-59
2022/10/13 08:46:58;;;;;;;;;3.25;2.50;;;;;20.84;44.70;101408.34;5036759;28;45407;-59
2022/10/13 08:49:24;;;;;;;;;5.50;5.50;;;;;20.82;44.62;101397.00;5036530;28;45338;-59
2022/10/13 08:51:49;;;;;;;;;7.00;5.75;;;;;20.84;44.28;101397.81;5036746;28;45429;-61
2022/10/13 08:54:18;;;;;;;;;4.25;4.25;;;;;20.83;44.36;101396.09;5036387;28;45232;-59
2022/10/13 08:56:48;;;;;;;;;5.25;5.25;;;;;20.84;44.48;101397.81;5036308;28;46230;-61
2022/10/13 08:59:15;;;;;;;;;8.00;6.00;;;;;20.84;44.56;101403.06;5036018;28;45859;-59
2022/10/13 09:01:41;;;;;;;;;5.25;5.00;;;;;20.83;44.57;101396.09;5036523;28;45364;-60
2022/10/13 09:04:25;;;;;;;;;5.75;3.50;;;;;20.84;44.70;101389.91;5036490;28;45560;-62
2022/10/13 09:06:56;;;;;;;;;5.00;5.00;;;;;20.83;44.99;101389.06;5036534;28;46289;-62
2022/10/13 09:09:21;;;;;;;;;5.75;5.75;;;;;20.83;44.46;101378.50;5036520;28;45849;-64
2022/10/13 09:11:48;;;;;;;;;5.00;5.00;;;;;20.85;44.71;101381.91;5034527;28;59455;-60
2022/10/13 09:14:30;;;;;;;;;4.50;4.00;;;;;20.85;44.85;101388.97;5036246;28;45248;-63
2022/10/13 09:17:10;;;;;;;;;6.25;4.00;;;;;20.85;44.42;101383.69;5035929;28;47206;-60
2022/10/13 09:19:36;;;;;;;;;4.25;4.00;;;;;20.85;44.66;101394.25;5036253;28;45972;-59
2022/10/13 09:22:28;;;;;;;;;3.50;3.00;;;;;20.85;44.40;101397.72;5035964;28;45378;-59
2022/10/13 09:25:06;;;;;;;;;4.00;4.00;;;;;20.85;44.54;101395.06;5036105;28;45504;-59
2022/10/13 09:27:56;;;;;;;;;6.00;4.00;;;;;20.85;44.36;101388.97;5035560;28;46925;-62
2022/10/13 09:30:31;;;;;;;;;4.75;4.75;;;;;20.84;44.83;101392.53;5036261;28;45787;-59
2022/10/13 09:33:19;;;;;;;;;4.25;3.50;;;;;20.84;44.28;101392.53;5035745;28;45319;-61
2022/10/13 09:35:49;;;;;;;;;5.25;4.00;;;;;20.86;44.62;101390.69;5036359;28;45235;-60
2022/10/13 09:38:19;;;;;;;;;6.75;3.50;;;;;20.85;44.41;101370.53;5035571;28;45263;-61
2022/10/13 09:41:02;;;;;;;;;5.00;3.50;;;;;20.86;44.69;101374.88;5035923;28;45778;-59
2022/10/13 09:43:34;;;;;;;;;4.50;4.50;;;;;20.86;44.54;101369.59;5035939;28;45422;-60
2022/10/13 09:46:02;;;;;;;;;4.00;4.00;;;;;20.85;44.41;101368.72;5035013;28;45602;-60
2022/10/13 09:48:32;;;;;;;;;3.25;3.00;;;;;20.86;44.22;101369.59;5035550;28;46346;-60
2022/10/13 09:50:58;;;;;;;;;4.00;4.00;;;;;20.85;44.59;101368.72;5034270;28;45256;-60
2022/10/13 09:53:31;;;;;;;;;4.00;3.00;;;;;20.85;44.79;101374.00;5035624;28;45280;-60
2022/10/13 09:56:07;;;;;;;;;5.75;5.00;;;;;20.84;44.39;101377.56;5035640;28;45334;-60
2022/10/13 09:58:39;;;;;;;;;4.00;4.00;;;;;20.85;44.75;101388.97;5035313;28;47049;-60
2022/10/13 10:01:05;;;;;;;;;5.50;4.75;;;;;20.86;44.32;101395.94;5034228;28;45955;-60
2022/10/13 10:03:37;;;;;;;;;3.75;3.75;;;;;20.85;44.72;101381.06;5035453;28;45420;-59
2022/10/13 10:06:06;;;;;;;;;6.00;3.75;;;;;20.84;44.45;101388.09;5035609;28;45446;-61
2022/10/13 10:08:50;;;;;;;;;5.25;4.75;;;;;20.87;44.35;101391.53;5035402;28;46451;-60
2022/10/13 10:11:28;;;;;;;;;5.00;3.00;;;;;20.86;44.36;101374.88;5035283;28;45922;-59
2022/10/13 10:13:55;;;;;;;;;4.75;4.25;;;;;20.86;44.52;101364.34;5034053;28;45272;-60
2022/10/13 10:16:34;;;;;;;;;4.25;4.25;;;;;20.86;44.48;101374.88;5035900;28;45346;-59
2022/10/13 10:19:19;;;;;;;;;4.00;4.00;;;;;20.86;44.12;101385.41;5035258;28;45465;-60
2022/10/13 10:22:34;;;;;;;;;4.25;4.25;;;;;20.86;44.55;101390.69;5033799;28;45465;-60
2022/10/13 10:25:25;;;;;;;;;3.50;3.25;;;;;20.84;44.80;101388.09;5033915;28;45496;-60
2022/10/13 10:27:59;;;;;;;;;4.25;3.75;;;;;20.83;44.53;101386.41;5035901;28;45322;-60
2022/10/13 10:30:28;;;;;;;;;3.75;3.75;;;;;20.84;44.68;101380.19;5035222;28;45255;-60
2022/10/13 10:33:07;;;;;;;;;6.50;4.00;;;;;20.82;44.91;101368.03;5033620;28;45741;-65
2022/10/13 10:35:55;;;;;;;;;3.75;3.75;;;;;20.83;44.60;101367.09;5035322;28;45215;-63
2022/10/13 10:38:51;;;;;;;;;4.00;4.00;;;;;20.85;44.72;101365.25;5035780;28;45415;-64
2022/10/13 10:41:32;;;;;;;;;3.25;2.00;;;;;20.85;44.58;101367.91;5034690;28;46916;-63
2022/10/13 10:44:10;;;;;;;;;4.00;3.00;;;;;20.85;44.30;101362.63;5033453;28;45683;-60
2022/10/13 10:46:41;;;;;;;;;4.50;2.75;;;;;20.85;44.27;101349.44;5035275;28;45301;-59
2022/10/13 10:49:15;;;;;;;;;3.50;3.25;;;;;20.84;44.43;101353.84;5033589;28;45634;-63
2022/10/13 10:51:41;;;;;;;;;3.00;3.00;;;;;20.86;44.49;101359.06;5034872;28;48044;-61
2022/10/13 10:54:23;;;;;;;;;4.00;4.00;;;;;20.85;44.59;101352.09;5034572;28;45204;-59
2022/10/13 10:57:07;;;;;;;;;5.25;3.75;;;;;20.86;44.31;101359.06;5037618;28;45433;-62
2022/10/13 10:59:45;;;;;;;;;4.50;4.00;;;;;20.84;44.68;101351.22;5038763;28;45453;-61
2022/10/13 11:02:16;;;;;;;;;2.75;2.75;;;;;20.85;44.48;101357.34;5037776;28;46286;-60
2022/10/13 11:04:45;;;;;;;;;5.00;3.25;;;;;20.85;44.48;101357.34;5038088;28;45362;-61
2022/10/13 11:07:21;;;;;;;;;3.00;3.00;;;;;20.84;44.74;101345.94;5037916;28;45379;-61
2022/10/13 11:09:46;;;;;;;;;3.00;3.00;;;;;20.85;44.58;101347.66;5038427;28;45214;-60
2022/10/13 11:12:18;;;;;;;;;4.00;3.00;;;;;20.86;44.27;101359.06;5037712;28;45976;-60
2022/10/13 11:14:47;;;;;;;;;3.75;2.25;;;;;20.86;44.45;101353.78;5037780;28;45941;-60
2022/10/13 11:17:35;;;;;;;;;3.00;3.00;;;;;20.85;44.87;101352.09;5037950;28;45382;-59
2022/10/13 11:20:20;;;;;;;;;2.00;2.00;;;;;20.86;44.81;101345.91;5037877;28;45314;-59
2022/10/13 11:22:58;;;;;;;;;3.75;3.25;;;;;20.87;44.82;101349.38;5037699;28;46409;-60
2022/10/13 11:25:38;;;;;;;;;3.00;3.00;;;;;20.87;44.35;101338.81;5037881;28;45350;-59
2022/10/13 11:28:19;;;;;;;;;4.25;2.75;;;;;20.86;44.55;101335.34;5037742;28;45450;-59
2022/10/13 11:30:46;;;;;;;;;3.75;3.75;;;;;20.86;44.73;101330.09;5038051;28;45431;-59
2022/10/13 11:33:39;;;;;;;;;3.00;3.00;;;;;20.85;44.79;101325.75;5037173;28;46475;-62
2022/10/13 11:36:41;;;;;;;;;3.00;3.00;;;;;20.86;44.79;101322.19;5037311;28;45292;-63